Grayson, Oklahoma
Current Conditions -  °F | °C
As of 4:55 PM on Wednesday 26 Nov 2014 (Local Time) from KOKM Reporting Station
Clear Clear  
Wind Chill: 50°   Ceiling: Unl
Heat Index: 50°   Visibility: 10mi
Dew Point: 26°   Wind: 13mph
Humidity: 38%   Direction: 300°WNW
Pressure: 30.23"   Gusts: 22mph
Location:  35.4729°N, 95.9709°W
Report Text: KOKM 262255Z AUTO 30011G19KT 10SM CLR 10/M03 A3023 RMK AO2 T01021035
Loading
Personal Weather Stations






























Interactive Weather Map New forecast layout! Learn more

10-Day Weather Forecast

Advertisements
Track Severe Weather on mobile